sensor_id;sensor_type;location;lat;lon;timestamp;P1;P2;P0
77320;PMS7003;66382;52.252;8.780;2023-04-29T00:00:48;39.25;35.00;22.50
77320;PMS7003;66382;52.252;8.780;2023-04-29T00:03:13;42.00;36.00;22.00
77320;PMS7003;66382;52.252;8.780;2023-04-29T00:05:39;39.00;34.50;22.25
77320;PMS7003;66382;52.252;8.780;2023-04-29T00:08:05;40.25;35.25;23.00
77320;PMS7003;66382;52.252;8.780;2023-04-29T00:10:30;37.50;33.50;21.25
77320;PMS7003;66382;52.252;8.780;2023-04-29T00:12:56;36.75;33.75;21.50
77320;PMS7003;66382;52.252;8.780;2023-04-29T00:15:23;39.75;35.25;24.25
77320;PMS7003;66382;52.252;8.780;2023-04-29T00:17:49;41.50;34.25;21.50
77320;PMS7003;66382;52.252;8.780;2023-04-29T00:20:15;40.25;35.50;22.00
77320;PMS7003;66382;52.252;8.780;2023-04-29T00:22:41;40.25;35.50;21.00
77320;PMS7003;66382;52.252;8.780;2023-04-29T00:25:07;39.25;34.75;22.00
77320;PMS7003;66382;52.252;8.780;2023-04-29T00:27:33;40.00;35.25;23.25
77320;PMS7003;66382;52.252;8.780;2023-04-29T00:29:59;44.75;38.75;22.50
77320;PMS7003;66382;52.252;8.780;2023-04-29T00:32:26;36.50;33.75;22.75
77320;PMS7003;66382;52.252;8.780;2023-04-29T00:34:51;39.00;35.00;23.25
77320;PMS7003;66382;52.252;8.780;2023-04-29T00:37:17;43.25;36.50;22.00
77320;PMS7003;66382;52.252;8.780;2023-04-29T00:39:43;35.75;33.25;19.75
77320;PMS7003;66382;52.252;8.780;2023-04-29T00:42:08;40.25;35.00;22.00
77320;PMS7003;66382;52.252;8.780;2023-04-29T00:44:35;33.25;32.00;21.00
77320;PMS7003;66382;52.252;8.780;2023-04-29T00:47:00;42.00;37.00;23.00
77320;PMS7003;66382;52.252;8.780;2023-04-29T00:49:27;38.75;35.25;22.50
77320;PMS7003;66382;52.252;8.780;2023-04-29T00:51:53;31.50;30.50;22.00
77320;PMS7003;66382;52.252;8.780;2023-04-29T00:54:21;34.75;32.25;21.00
77320;PMS7003;66382;52.252;8.780;2023-04-29T00:56:47;37.25;33.25;22.00
77320;PMS7003;66382;52.252;8.780;2023-04-29T00:59:14;33.75;32.00;21.00
77320;PMS7003;66382;52.252;8.780;2023-04-29T01:01:40;33.00;31.00;21.25
77320;PMS7003;66382;52.252;8.780;2023-04-29T01:04:06;36.00;33.25;21.00
77320;PMS7003;66382;52.252;8.780;2023-04-29T01:06:36;31.75;30.75;20.50
77320;PMS7003;66382;52.252;8.780;2023-04-29T01:09:16;30.00;29.75;19.50
77320;PMS7003;66382;52.252;8.780;2023-04-29T01:11:52;32.25;31.25;21.50
77320;PMS7003;66382;52.252;8.780;2023-04-29T01:14:25;35.75;33.00;21.00
77320;PMS7003;66382;52.252;8.780;2023-04-29T01:16:53;33.25;31.75;20.25
77320;PMS7003;66382;52.252;8.780;2023-04-29T01:19:26;30.50;30.00;19.50
77320;PMS7003;66382;52.252;8.780;2023-04-29T01:22:09;29.00;28.75;20.00
77320;PMS7003;66382;52.252;8.780;2023-04-29T01:24:36;29.50;29.00;20.00
77320;PMS7003;66382;52.252;8.780;2023-04-29T01:27:04;27.75;27.75;18.75
77320;PMS7003;66382;52.252;8.780;2023-04-29T01:29:39;31.25;30.00;20.00
77320;PMS7003;66382;52.252;8.780;2023-04-29T01:32:10;30.00;29.00;19.50
77320;PMS7003;66382;52.252;8.780;2023-04-29T01:34:43;28.50;28.50;19.50
77320;PMS7003;66382;52.252;8.780;2023-04-29T01:37:17;36.25;33.50;21.50
77320;PMS7003;66382;52.252;8.780;2023-04-29T01:39:56;31.25;30.00;20.25
77320;PMS7003;66382;52.252;8.780;2023-04-29T01:42:32;29.25;29.25;19.50
77320;PMS7003;66382;52.252;8.780;2023-04-29T01:45:04;29.25;29.25;18.75
77320;PMS7003;66382;52.252;8.780;2023-04-29T01:47:32;33.00;31.25;19.25
77320;PMS7003;66382;52.252;8.780;2023-04-29T01:50:00;35.50;32.25;19.00
77320;PMS7003;66382;52.252;8.780;2023-04-29T01:52:25;33.25;31.50;20.00
77320;PMS7003;66382;52.252;8.780;2023-04-29T01:54:51;27.25;27.25;17.00
77320;PMS7003;66382;52.252;8.780;2023-04-29T01:57:18;31.50;30.75;18.25
77320;PMS7003;66382;52.252;8.780;2023-04-29T01:59:44;33.25;31.50;21.00
77320;PMS7003;66382;52.252;8.780;2023-04-29T02:02:10;37.25;34.25;21.50
77320;PMS7003;66382;52.252;8.780;2023-04-29T02:04:35;32.50;30.00;20.00
77320;PMS7003;66382;52.252;8.780;2023-04-29T02:07:01;30.50;30.00;20.75
77320;PMS7003;66382;52.252;8.780;2023-04-29T02:09:27;34.50;32.50;21.75
77320;PMS7003;66382;52.252;8.780;2023-04-29T02:11:52;33.00;31.00;20.50
77320;PMS7003;66382;52.252;8.780;2023-04-29T02:14:19;35.00;33.00;22.00
77320;PMS7003;66382;52.252;8.780;2023-04-29T02:16:45;36.50;33.50;21.25
77320;PMS7003;66382;52.252;8.780;2023-04-29T02:19:11;38.00;34.75;22.00
77320;PMS7003;66382;52.252;8.780;2023-04-29T02:21:37;34.75;32.00;20.25
77320;PMS7003;66382;52.252;8.780;2023-04-29T02:24:03;38.00;35.00;20.75
77320;PMS7003;66382;52.252;8.780;2023-04-29T02:26:29;34.50;32.25;21.00
77320;PMS7003;66382;52.252;8.780;2023-04-29T02:28:54;34.25;32.25;22.00
77320;PMS7003;66382;52.252;8.780;2023-04-29T02:31:21;34.50;32.50;20.00
77320;PMS7003;66382;52.252;8.780;2023-04-29T02:33:47;33.00;31.50;20.25
77320;PMS7003;66382;52.252;8.780;2023-04-29T02:36:13;32.75;31.75;20.00
77320;PMS7003;66382;52.252;8.780;2023-04-29T02:38:39;35.00;32.00;21.75
77320;PMS7003;66382;52.252;8.780;2023-04-29T02:41:04;33.00;31.75;20.00
77320;PMS7003;66382;52.252;8.780;2023-04-29T02:43:30;35.50;32.50;22.00
77320;PMS7003;66382;52.252;8.780;2023-04-29T02:45:56;39.00;35.25;21.75
77320;PMS7003;66382;52.252;8.780;2023-04-29T02:48:23;36.00;33.50;23.25
77320;PMS7003;66382;52.252;8.780;2023-04-29T02:50:49;31.50;30.50;21.25
77320;PMS7003;66382;52.252;8.780;2023-04-29T02:53:14;39.00;35.25;23.00
77320;PMS7003;66382;52.252;8.780;2023-04-29T02:55:40;31.00;30.00;19.25
77320;PMS7003;66382;52.252;8.780;2023-04-29T02:58:06;33.25;32.00;21.50
77320;PMS7003;66382;52.252;8.780;2023-04-29T03:00:31;41.75;36.50;23.00
77320;PMS7003;66382;52.252;8.780;2023-04-29T03:02:57;34.25;32.25;23.00
77320;PMS7003;66382;52.252;8.780;2023-04-29T03:05:24;33.75;32.00;21.25
77320;PMS7003;66382;52.252;8.780;2023-04-29T03:07:50;34.50;32.50;21.00
77320;PMS7003;66382;52.252;8.780;2023-04-29T03:10:15;43.75;35.00;22.75
77320;PMS7003;66382;52.252;8.780;2023-04-29T03:12:41;35.25;32.75;22.00
77320;PMS7003;66382;52.252;8.780;2023-04-29T03:15:07;42.50;37.25;25.25
77320;PMS7003;66382;52.252;8.780;2023-04-29T03:17:33;40.75;36.25;24.00
77320;PMS7003;66382;52.252;8.780;2023-04-29T03:19:59;39.50;35.50;23.00
77320;PMS7003;66382;52.252;8.780;2023-04-29T03:22:26;43.00;37.50;23.50
77320;PMS7003;66382;52.252;8.780;2023-04-29T03:24:51;38.75;35.25;23.25
77320;PMS7003;66382;52.252;8.780;2023-04-29T03:27:17;44.75;38.25;23.50
77320;PMS7003;66382;52.252;8.780;2023-04-29T03:29:43;43.75;38.00;24.75
77320;PMS7003;66382;52.252;8.780;2023-04-29T03:32:08;41.75;36.75;23.75
77320;PMS7003;66382;52.252;8.780;2023-04-29T03:34:34;45.00;39.00;25.00
77320;PMS7003;66382;52.252;8.780;2023-04-29T03:37:00;46.25;40.00;24.00
77320;PMS7003;66382;52.252;8.780;2023-04-29T03:39:27;45.75;38.50;24.25
77320;PMS7003;66382;52.252;8.780;2023-04-29T03:41:52;45.00;39.00;23.00
77320;PMS7003;66382;52.252;8.780;2023-04-29T03:44:18;43.25;37.75;23.00
77320;PMS7003;66382;52.252;8.780;2023-04-29T03:46:44;44.75;37.25;24.00
77320;PMS7003;66382;52.252;8.780;2023-04-29T03:49:10;41.75;36.50;22.50
77320;PMS7003;66382;52.252;8.780;2023-04-29T03:51:35;34.00;32.00;19.00
77320;PMS7003;66382;52.252;8.780;2023-04-29T03:54:01;40.50;36.25;23.00
77320;PMS7003;66382;52.252;8.780;2023-04-29T03:56:28;40.00;35.25;23.00
77320;PMS7003;66382;52.252;8.780;2023-04-29T03:58:54;45.00;38.75;25.75
77320;PMS7003;66382;52.252;8.780;2023-04-29T04:01:19;47.25;41.00;25.00
77320;PMS7003;66382;52.252;8.780;2023-04-29T04:03:45;48.00;41.50;27.00
77320;PMS7003;66382;52.252;8.780;2023-04-29T04:06:11;46.75;40.00;24.75
77320;PMS7003;66382;52.252;8.780;2023-04-29T04:08:36;50.75;43.50;26.25
77320;PMS7003;66382;52.252;8.780;2023-04-29T04:11:02;48.00;41.00;27.25
77320;PMS7003;66382;52.252;8.780;2023-04-29T04:13:29;50.00;42.50;26.50
77320;PMS7003;66382;52.252;8.780;2023-04-29T04:15:55;48.50;41.25;25.50
77320;PMS7003;66382;52.252;8.780;2023-04-29T04:18:21;47.00;41.00;24.75
77320;PMS7003;66382;52.252;8.780;2023-04-29T04:20:46;48.75;42.00;26.00
77320;PMS7003;66382;52.252;8.780;2023-04-29T04:23:12;53.00;44.50;27.50
77320;PMS7003;66382;52.252;8.780;2023-04-29T04:25:40;49.50;42.50;27.50
77320;PMS7003;66382;52.252;8.780;2023-04-29T04:28:09;54.25;45.75;28.00
77320;PMS7003;66382;52.252;8.780;2023-04-29T04:30:37;50.25;42.50;26.00
77320;PMS7003;66382;52.252;8.780;2023-04-29T04:33:02;55.00;46.25;28.00
77320;PMS7003;66382;52.252;8.780;2023-04-29T04:35:28;49.75;42.00;24.00
77320;PMS7003;66382;52.252;8.780;2023-04-29T04:37:54;48.00;40.75;25.25
77320;PMS7003;66382;52.252;8.780;2023-04-29T04:40:19;53.00;44.50;28.25
77320;PMS7003;66382;52.252;8.780;2023-04-29T04:42:45;52.50;44.75;27.50
77320;PMS7003;66382;52.252;8.780;2023-04-29T04:45:11;52.25;44.50;27.00
77320;PMS7003;66382;52.252;8.780;2023-04-29T04:47:38;48.00;41.25;27.00
77320;PMS7003;66382;52.252;8.780;2023-04-29T04:50:05;50.00;43.00;27.00
77320;PMS7003;66382;52.252;8.780;2023-04-29T04:52:31;55.25;46.00;29.00
77320;PMS7003;66382;52.252;8.780;2023-04-29T04:54:57;51.75;44.50;28.00
77320;PMS7003;66382;52.252;8.780;2023-04-29T04:57:23;50.75;43.75;27.50
77320;PMS7003;66382;52.252;8.780;2023-04-29T04:59:49;53.25;45.00;28.00
77320;PMS7003;66382;52.252;8.780;2023-04-29T05:02:14;47.50;40.75;24.75
77320;PMS7003;66382;52.252;8.780;2023-04-29T05:04:41;49.00;42.00;27.00
77320;PMS7003;66382;52.252;8.780;2023-04-29T05:07:07;47.75;40.50;26.00
77320;PMS7003;66382;52.252;8.780;2023-04-29T05:09:33;53.50;45.00;27.50
77320;PMS7003;66382;52.252;8.780;2023-04-29T05:11:59;55.75;46.00;28.00
77320;PMS7003;66382;52.252;8.780;2023-04-29T05:14:24;50.25;43.00;28.25
77320;PMS7003;66382;52.252;8.780;2023-04-29T05:16:50;50.75;43.75;27.75
77320;PMS7003;66382;52.252;8.780;2023-04-29T05:19:16;49.00;42.00;27.50
77320;PMS7003;66382;52.252;8.780;2023-04-29T05:21:43;54.50;46.25;27.50
77320;PMS7003;66382;52.252;8.780;2023-04-29T05:24:08;54.25;45.75;28.25
77320;PMS7003;66382;52.252;8.780;2023-04-29T05:26:34;55.25;45.50;27.50
77320;PMS7003;66382;52.252;8.780;2023-04-29T05:29:00;57.75;47.25;28.25
77320;PMS7003;66382;52.252;8.780;2023-04-29T05:31:26;55.00;46.50;29.00
77320;PMS7003;66382;52.252;8.780;2023-04-29T05:33:52;54.75;46.25;28.25
77320;PMS7003;66382;52.252;8.780;2023-04-29T05:36:17;57.00;47.25;30.25
77320;PMS7003;66382;52.252;8.780;2023-04-29T05:38:44;54.00;45.75;28.50
77320;PMS7003;66382;52.252;8.780;2023-04-29T05:41:10;57.00;47.75;29.25
77320;PMS7003;66382;52.252;8.780;2023-04-29T05:43:36;56.25;46.00;28.75
77320;PMS7003;66382;52.252;8.780;2023-04-29T05:46:01;54.50;45.25;28.25
77320;PMS7003;66382;52.252;8.780;2023-04-29T05:48:27;56.25;47.00;28.25
77320;PMS7003;66382;52.252;8.780;2023-04-29T05:50:53;55.75;46.75;29.25
77320;PMS7003;66382;52.252;8.780;2023-04-29T05:53:18;61.00;50.00;30.00
77320;PMS7003;66382;52.252;8.780;2023-04-29T05:55:46;57.50;48.25;30.00
77320;PMS7003;66382;52.252;8.780;2023-04-29T05:58:11;58.25;48.00;29.25
77320;PMS7003;66382;52.252;8.780;2023-04-29T06:00:37;58.25;47.50;29.50
77320;PMS7003;66382;52.252;8.780;2023-04-29T06:03:03;58.00;48.50;29.25
77320;PMS7003;66382;52.252;8.780;2023-04-29T06:05:29;57.50;48.25;30.00
77320;PMS7003;66382;52.252;8.780;2023-04-29T06:07:54;56.50;47.00;29.50
77320;PMS7003;66382;52.252;8.780;2023-04-29T06:10:20;57.25;47.50;28.75
77320;PMS7003;66382;52.252;8.780;2023-04-29T06:12:47;57.75;48.50;29.25
77320;PMS7003;66382;52.252;8.780;2023-04-29T06:15:13;53.25;45.00;29.00
77320;PMS7003;66382;52.252;8.780;2023-04-29T06:17:40;60.50;50.00;30.25
77320;PMS7003;66382;52.252;8.780;2023-04-29T06:20:06;59.75;49.50;31.25
77320;PMS7003;66382;52.252;8.780;2023-04-29T06:22:33;59.50;49.00;30.25
77320;PMS7003;66382;52.252;8.780;2023-04-29T06:24:58;51.75;44.50;28.00
77320;PMS7003;66382;52.252;8.780;2023-04-29T06:27:24;52.00;44.00;27.25
77320;PMS7003;66382;52.252;8.780;2023-04-29T06:29:51;56.75;47.25;29.25
77320;PMS7003;66382;52.252;8.780;2023-04-29T06:32:17;56.50;46.25;29.25
77320;PMS7003;66382;52.252;8.780;2023-04-29T06:34:42;56.50;47.00;29.75
77320;PMS7003;66382;52.252;8.780;2023-04-29T06:37:08;57.50;47.75;29.25
77320;PMS7003;66382;52.252;8.780;2023-04-29T06:39:34;58.50;48.75;31.00
77320;PMS7003;66382;52.252;8.780;2023-04-29T06:41:59;57.75;48.00;29.25
77320;PMS7003;66382;52.252;8.780;2023-04-29T06:44:25;59.50;48.75;29.50
77320;PMS7003;66382;52.252;8.780;2023-04-29T06:46:52;56.00;47.00;27.50
77320;PMS7003;66382;52.252;8.780;2023-04-29T06:49:18;56.50;47.25;30.75
77320;PMS7003;66382;52.252;8.780;2023-04-29T06:51:44;60.75;50.25;31.00
77320;PMS7003;66382;52.252;8.780;2023-04-29T06:54:09;58.50;48.50;29.75
77320;PMS7003;66382;52.252;8.780;2023-04-29T06:56:35;59.00;49.00;31.25
77320;PMS7003;66382;52.252;8.780;2023-04-29T06:59:01;58.50;48.50;30.75
77320;PMS7003;66382;52.252;8.780;2023-04-29T07:01:26;60.75;50.00;31.25
77320;PMS7003;66382;52.252;8.780;2023-04-29T07:03:53;59.00;49.50;31.25
77320;PMS7003;66382;52.252;8.780;2023-04-29T07:06:19;56.00;46.50;28.75
77320;PMS7003;66382;52.252;8.780;2023-04-29T07:08:45;59.00;48.50;30.00
77320;PMS7003;66382;52.252;8.780;2023-04-29T07:11:10;55.75;46.75;30.25
77320;PMS7003;66382;52.252;8.780;2023-04-29T07:13:37;56.75;47.25;30.50
77320;PMS7003;66382;52.252;8.780;2023-04-29T07:16:03;55.75;47.25;30.25
77320;PMS7003;66382;52.252;8.780;2023-04-29T07:18:29;61.75;50.25;30.25
77320;PMS7003;66382;52.252;8.780;2023-04-29T07:20:59;54.50;45.50;28.75
77320;PMS7003;66382;52.252;8.780;2023-04-29T07:23:25;55.00;46.25;29.25
77320;PMS7003;66382;52.252;8.780;2023-04-29T07:25:51;54.50;45.50;28.75
77320;PMS7003;66382;52.252;8.780;2023-04-29T07:28:16;51.50;42.75;30.00
77320;PMS7003;66382;52.252;8.780;2023-04-29T07:30:42;49.25;41.75;26.00
77320;PMS7003;66382;52.252;8.780;2023-04-29T07:33:08;51.25;43.50;27.50
77320;PMS7003;66382;52.252;8.780;2023-04-29T07:35:33;51.50;44.25;28.00
77320;PMS7003;66382;52.252;8.780;2023-04-29T07:38:00;56.00;46.25;29.00
77320;PMS7003;66382;52.252;8.780;2023-04-29T07:40:26;55.75;46.75;29.00
77320;PMS7003;66382;52.252;8.780;2023-04-29T07:42:52;50.25;43.25;28.25
77320;PMS7003;66382;52.252;8.780;2023-04-29T07:45:18;55.75;46.50;29.50
77320;PMS7003;66382;52.252;8.780;2023-04-29T07:47:43;54.00;44.50;29.50
77320;PMS7003;66382;52.252;8.780;2023-04-29T07:50:09;52.50;45.00;29.00
77320;PMS7003;66382;52.252;8.780;2023-04-29T07:52:35;55.50;46.25;29.00
77320;PMS7003;66382;52.252;8.780;2023-04-29T07:55:02;57.00;47.50;31.00
77320;PMS7003;66382;52.252;8.780;2023-04-29T07:57:29;50.25;42.50;28.00
77320;PMS7003;66382;52.252;8.780;2023-04-29T07:59:54;53.00;44.00;29.00
77320;PMS7003;66382;52.252;8.780;2023-04-29T08:02:20;52.00;43.75;29.50
77320;PMS7003;66382;52.252;8.780;2023-04-29T08:04:46;50.25;43.00;28.00
77320;PMS7003;66382;52.252;8.780;2023-04-29T08:07:11;50.25;43.00;29.00
77320;PMS7003;66382;52.252;8.780;2023-04-29T08:09:37;49.00;41.25;27.00
77320;PMS7003;66382;52.252;8.780;2023-04-29T08:12:04;49.00;42.00;27.00
77320;PMS7003;66382;52.252;8.780;2023-04-29T08:14:30;52.00;44.00;30.00
77320;PMS7003;66382;52.252;8.780;2023-04-29T08:16:56;54.50;45.25;30.50
77320;PMS7003;66382;52.252;8.780;2023-04-29T08:19:21;52.50;44.50;29.00
77320;PMS7003;66382;52.252;8.780;2023-04-29T08:21:47;49.50;41.00;27.50
77320;PMS7003;66382;52.252;8.780;2023-04-29T08:24:13;49.25;42.00;26.75
77320;PMS7003;66382;52.252;8.780;2023-04-29T08:26:39;48.50;41.25;28.25
77320;PMS7003;66382;52.252;8.780;2023-04-29T08:29:06;50.75;43.75;29.00
77320;PMS7003;66382;52.252;8.780;2023-04-29T08:31:31;53.25;45.75;30.00
77320;PMS7003;66382;52.252;8.780;2023-04-29T08:33:57;44.00;38.00;25.50
77320;PMS7003;66382;52.252;8.780;2023-04-29T08:36:23;45.50;39.25;26.50
77320;PMS7003;66382;52.252;8.780;2023-04-29T08:38:48;44.50;38.50;26.50
77320;PMS7003;66382;52.252;8.780;2023-04-29T08:41:14;36.25;34.25;20.75
77320;PMS7003;66382;52.252;8.780;2023-04-29T08:43:40;49.50;42.75;28.75
77320;PMS7003;66382;52.252;8.780;2023-04-29T08:46:07;48.25;42.00;27.25
77320;PMS7003;66382;52.252;8.780;2023-04-29T08:48:35;51.25;43.25;28.75
77320;PMS7003;66382;52.252;8.780;2023-04-29T08:51:01;44.50;39.50;28.00
77320;PMS7003;66382;52.252;8.780;2023-04-29T08:53:27;44.50;39.25;26.00
77320;PMS7003;66382;52.252;8.780;2023-04-29T08:55:53;36.50;35.25;23.25
77320;PMS7003;66382;52.252;8.780;2023-04-29T08:58:19;40.75;37.50;26.00
77320;PMS7003;66382;52.252;8.780;2023-04-29T09:00:46;44.75;40.00;27.75
77320;PMS7003;66382;52.252;8.780;2023-04-29T09:03:16;43.25;39.00;27.00
77320;PMS7003;66382;52.252;8.780;2023-04-29T09:05:47;46.00;41.00;26.25
77320;PMS7003;66382;52.252;8.780;2023-04-29T09:08:13;44.25;39.50;25.75
77320;PMS7003;66382;52.252;8.780;2023-04-29T09:10:40;43.25;39.00;25.75
77320;PMS7003;66382;52.252;8.780;2023-04-29T09:13:07;46.25;38.50;25.50
77320;PMS7003;66382;52.252;8.780;2023-04-29T09:15:34;44.50;39.25;26.50
77320;PMS7003;66382;52.252;8.780;2023-04-29T09:18:00;41.75;37.50;24.75
77320;PMS7003;66382;52.252;8.780;2023-04-29T09:20:28;46.50;40.75;27.25
77320;PMS7003;66382;52.252;8.780;2023-04-29T09:22:55;43.25;38.50;24.75
77320;PMS7003;66382;52.252;8.780;2023-04-29T09:25:21;45.25;39.00;25.50
77320;PMS7003;66382;52.252;8.780;2023-04-29T09:27:47;39.75;36.50;25.00
77320;PMS7003;66382;52.252;8.780;2023-04-29T09:30:13;45.25;38.50;26.00
77320;PMS7003;66382;52.252;8.780;2023-04-29T09:32:39;43.25;38.75;26.75
77320;PMS7003;66382;52.252;8.780;2023-04-29T09:35:23;46.00;40.00;25.00
77320;PMS7003;66382;52.252;8.780;2023-04-29T09:37:51;41.75;37.00;25.25
77320;PMS7003;66382;52.252;8.780;2023-04-29T09:40:26;45.00;38.75;25.50
77320;PMS7003;66382;52.252;8.780;2023-04-29T09:42:52;48.25;41.50;26.50
77320;PMS7003;66382;52.252;8.780;2023-04-29T09:45:30;43.75;37.75;24.50
77320;PMS7003;66382;52.252;8.780;2023-04-29T09:48:00;40.25;35.25;23.50
77320;PMS7003;66382;52.252;8.780;2023-04-29T09:50:26;39.50;35.50;24.25
77320;PMS7003;66382;52.252;8.780;2023-04-29T09:52:53;37.50;35.00;22.75
77320;PMS7003;66382;52.252;8.780;2023-04-29T09:55:19;41.00;37.25;24.25
77320;PMS7003;66382;52.252;8.780;2023-04-29T09:57:45;40.25;36.50;24.25
77320;PMS7003;66382;52.252;8.780;2023-04-29T10:00:11;42.00;38.00;25.25
77320;PMS7003;66382;52.252;8.780;2023-04-29T10:02:38;37.00;35.00;22.33
77320;PMS7003;66382;52.252;8.780;2023-04-29T10:05:06;36.67;34.33;23.33
77320;PMS7003;66382;52.252;8.780;2023-04-29T10:07:34;41.50;37.75;23.75
77320;PMS7003;66382;52.252;8.780;2023-04-29T10:10:01;38.50;35.50;24.00
77320;PMS7003;66382;52.252;8.780;2023-04-29T10:12:30;36.67;34.33;24.33
77320;PMS7003;66382;52.252;8.780;2023-04-29T10:15:00;31.00;31.00;23.33
77320;PMS7003;66382;52.252;8.780;2023-04-29T10:17:31;36.67;34.33;24.33
77320;PMS7003;66382;52.252;8.780;2023-04-29T10:20:02;29.67;29.67;21.33
77320;PMS7003;66382;52.252;8.780;2023-04-29T10:22:32;32.00;31.33;23.33
77320;PMS7003;66382;52.252;8.780;2023-04-29T10:25:01;28.67;28.67;20.67
77320;PMS7003;66382;52.252;8.780;2023-04-29T10:27:31;29.00;29.00;21.33
77320;PMS7003;66382;52.252;8.780;2023-04-29T10:30:01;34.33;32.67;23.67
77320;PMS7003;66382;52.252;8.780;2023-04-29T10:32:27;31.33;30.00;21.33
77320;PMS7003;66382;52.252;8.780;2023-04-29T10:34:54;30.33;30.33;21.33
77320;PMS7003;66382;52.252;8.780;2023-04-29T10:37:20;34.00;32.00;23.33
77320;PMS7003;66382;52.252;8.780;2023-04-29T10:39:48;25.75;25.00;16.50
77320;PMS7003;66382;52.252;8.780;2023-04-29T10:42:20;30.33;30.33;21.00
77320;PMS7003;66382;52.252;8.780;2023-04-29T10:48:07;29.00;29.00;21.33
77320;PMS7003;66382;52.252;8.780;2023-04-29T10:50:58;28.00;28.00;20.33
77320;PMS7003;66382;52.252;8.780;2023-04-29T10:53:27;29.67;29.67;22.00
77320;PMS7003;66382;52.252;8.780;2023-04-29T10:55:53;30.67;30.67;20.33
77320;PMS7003;66382;52.252;8.780;2023-04-29T10:58:36;25.33;25.33;21.33
77320;PMS7003;66382;52.252;8.780;2023-04-29T11:01:03;28.00;28.00;21.33
77320;PMS7003;66382;52.252;8.780;2023-04-29T11:03:46;26.00;26.00;18.75
77320;PMS7003;66382;52.252;8.780;2023-04-29T11:06:13;24.33;24.00;19.33
77320;PMS7003;66382;52.252;8.780;2023-04-29T11:08:39;26.00;26.00;20.50
77320;PMS7003;66382;52.252;8.780;2023-04-29T11:11:05;25.67;23.67;18.67
77320;PMS7003;66382;52.252;8.780;2023-04-29T11:13:31;26.67;26.67;20.00
77320;PMS7003;66382;52.252;8.780;2023-04-29T11:16:04;25.00;25.00;18.33
77320;PMS7003;66382;52.252;8.780;2023-04-29T11:18:30;28.33;28.33;21.33
77320;PMS7003;66382;52.252;8.780;2023-04-29T11:21:11;28.00;28.00;21.00
77320;PMS7003;66382;52.252;8.780;2023-04-29T11:23:37;29.00;29.00;21.33
77320;PMS7003;66382;52.252;8.780;2023-04-29T11:26:04;27.33;26.33;20.33
77320;PMS7003;66382;52.252;8.780;2023-04-29T11:28:30;24.67;24.67;20.00
77320;PMS7003;66382;52.252;8.780;2023-04-29T11:30:57;27.33;27.33;21.33
77320;PMS7003;66382;52.252;8.780;2023-04-29T11:33:25;27.50;27.50;20.75
77320;PMS7003;66382;52.252;8.780;2023-04-29T11:35:51;30.33;30.00;20.67
77320;PMS7003;66382;52.252;8.780;2023-04-29T11:38:17;30.33;30.33;21.33
77320;PMS7003;66382;52.252;8.780;2023-04-29T11:40:48;32.67;32.00;22.67
77320;PMS7003;66382;52.252;8.780;2023-04-29T11:43:15;29.33;29.33;20.00
77320;PMS7003;66382;52.252;8.780;2023-04-29T11:45:43;31.33;30.33;23.00
77320;PMS7003;66382;52.252;8.780;2023-04-29T11:48:09;34.33;33.00;23.33
77320;PMS7003;66382;52.252;8.780;2023-04-29T11:50:43;33.00;32.33;23.00
77320;PMS7003;66382;52.252;8.780;2023-04-29T11:53:10;32.67;32.00;23.33
77320;PMS7003;66382;52.252;8.780;2023-04-29T11:55:35;27.67;27.67;22.33
77320;PMS7003;66382;52.252;8.780;2023-04-29T11:58:02;28.67;28.67;20.33
77320;PMS7003;66382;52.252;8.780;2023-04-29T12:00:28;27.50;27.50;20.25
77320;PMS7003;66382;52.252;8.780;2023-04-29T12:02:55;27.00;26.67;20.00
77320;PMS7003;66382;52.252;8.780;2023-04-29T12:05:24;23.50;23.50;19.50
77320;PMS7003;66382;52.252;8.780;2023-04-29T12:07:51;25.50;25.50;19.50
77320;PMS7003;66382;52.252;8.780;2023-04-29T12:10:19;24.67;24.67;20.33
77320;PMS7003;66382;52.252;8.780;2023-04-29T12:12:45;28.25;28.25;20.25
77320;PMS7003;66382;52.252;8.780;2023-04-29T12:15:12;23.75;23.75;18.50
77320;PMS7003;66382;52.252;8.780;2023-04-29T12:17:39;29.75;29.25;20.25
77320;PMS7003;66382;52.252;8.780;2023-04-29T12:20:07;28.00;28.00;19.33
77320;PMS7003;66382;52.252;8.780;2023-04-29T12:22:33;25.00;24.25;20.50
77320;PMS7003;66382;52.252;8.780;2023-04-29T12:25:03;29.33;29.33;21.00
77320;PMS7003;66382;52.252;8.780;2023-04-29T12:27:29;24.25;24.25;19.75
77320;PMS7003;66382;52.252;8.780;2023-04-29T12:29:55;26.33;25.67;18.00
77320;PMS7003;66382;52.252;8.780;2023-04-29T12:32:22;20.50;19.25;15.50
77320;PMS7003;66382;52.252;8.780;2023-04-29T12:34:49;19.25;19.25;13.00
77320;PMS7003;66382;52.252;8.780;2023-04-29T12:37:16;22.25;22.00;16.75
77320;PMS7003;66382;52.252;8.780;2023-04-29T12:39:41;20.67;20.67;16.67
77320;PMS7003;66382;52.252;8.780;2023-04-29T12:42:13;21.33;21.33;16.33
77320;PMS7003;66382;52.252;8.780;2023-04-29T12:44:39;17.25;16.75;13.25
77320;PMS7003;66382;52.252;8.780;2023-04-29T12:47:06;20.00;20.00;14.33
77320;PMS7003;66382;52.252;8.780;2023-04-29T12:49:32;18.75;18.75;14.75
77320;PMS7003;66382;52.252;8.780;2023-04-29T12:51:58;19.33;19.33;14.67
77320;PMS7003;66382;52.252;8.780;2023-04-29T12:54:24;18.00;18.00;13.00
77320;PMS7003;66382;52.252;8.780;2023-04-29T12:56:50;18.67;18.67;13.67
77320;PMS7003;66382;52.252;8.780;2023-04-29T12:59:17;19.67;19.67;14.33
77320;PMS7003;66382;52.252;8.780;2023-04-29T13:01:42;16.00;16.00;12.25
77320;PMS7003;66382;52.252;8.780;2023-04-29T13:04:08;18.33;18.33;13.33
77320;PMS7003;66382;52.252;8.780;2023-04-29T13:06:34;16.67;16.67;13.00
77320;PMS7003;66382;52.252;8.780;2023-04-29T13:08:59;16.00;14.67;11.33
77320;PMS7003;66382;52.252;8.780;2023-04-29T13:11:25;20.00;19.67;13.67
77320;PMS7003;66382;52.252;8.780;2023-04-29T13:13:51;20.33;20.33;17.33
77320;PMS7003;66382;52.252;8.780;2023-04-29T13:16:18;18.67;18.67;14.00
77320;PMS7003;66382;52.252;8.780;2023-04-29T13:18:44;19.25;19.25;15.75
77320;PMS7003;66382;52.252;8.780;2023-04-29T13:21:09;21.33;21.00;15.67
77320;PMS7003;66382;52.252;8.780;2023-04-29T13:23:35;21.67;21.67;16.00
77320;PMS7003;66382;52.252;8.780;2023-04-29T13:26:01;20.00;20.00;17.67
77320;PMS7003;66382;52.252;8.780;2023-04-29T13:28:26;19.33;19.33;15.67
77320;PMS7003;66382;52.252;8.780;2023-04-29T13:30:52;18.33;18.33;14.67
77320;PMS7003;66382;52.252;8.780;2023-04-29T13:33:19;19.67;19.33;14.33
77320;PMS7003;66382;52.252;8.780;2023-04-29T13:35:45;17.75;17.75;14.00
77320;PMS7003;66382;52.252;8.780;2023-04-29T13:38:12;19.25;19.25;14.50
77320;PMS7003;66382;52.252;8.780;2023-04-29T13:40:38;19.67;19.67;14.67
77320;PMS7003;66382;52.252;8.780;2023-04-29T13:43:03;20.33;20.33;15.67
77320;PMS7003;66382;52.252;8.780;2023-04-29T13:45:29;15.67;15.67;13.33
77320;PMS7003;66382;52.252;8.780;2023-04-29T13:47:55;18.67;18.67;13.67